Aviation Digital Data Service (ADDS)

Output produced by METARs form (2050 UTC 24 June 2017)
found at http://www.aviationweather.gov/adds/metars/
 
OOSA 241950Z 19007KT 9999 SCT010 BKN025 29/27 Q1004 NOSIG
TAF OOSA 241740Z 2418/2600 19016KT 9000 FEW014 SCT025 
     BECMG 2420/2422 19006KT 
     TEMPO 2420/2505 VRB03KT BKN025 
     BECMG 2506/2508 19015KT
       
OOMS 241950Z 23004KT 8000 NSC 38/09 Q0996 NOSIG
TAF OOMS 241700Z 2418/2600 25008KT CAVOK 
     BECMG 2506/2508 35012KT 
     BECMG 2518/2520 VRB03KT